Aeroporto :
LOGIN :

Iscrizione | Disclaimer

   EN    FR    IT 

 










Sommario :    VFR   VFR Marginale   IFR   IFR Intensivo   IFR Molto Intensivo
Visibilità : 
Base nubi : 
>= 8 km
>= 3000ft
5 / 8 km
1000 / 3000 ft
1500m / 5 km
500 / 1000 ft
800 / 1500m
200 / 500 ft
< 800m
< 200 ft
Simboli :   Temporali  Nebbia  Neve Forte  Precipitazioni Forti  Vento > 20 kt
SIGMETs :   Varie  Temporali  Ghiacco  Turbolenza  Onda orograficha  Ceneri Vulcaniche






- Altitudine del aeroporto : 367 ft


EGYE - RAF Barkston Heath

ULTIMO METAR :
  • 291150Z 29008KT 9999 -RA FEW011 BKN080 09/06 Q1002 RMK BLU

METARs OBSOLETI :
  • 291050Z 26008KT 9999 FEW011 BKN078 09/08 Q1002 RMK BLU
  • 290950Z 25007KT 9999 FEW010 BKN055 09/08 Q1002 RMK BLU
  • 290850Z 24005KT 9999 FEW019 BKN055 09/08 Q1002 RMK BLU
  • 290820Z AUTO 26008KT //// SCT010/// SCT020/// 09/08 Q1003
  • 290750Z 26006KT 9999 FEW009 BKN017 09/08 Q1003 RMK WHT
  • 290720Z AUTO 22009KT //// FEW008/// BKN054/// 09/08 Q1003

TAF TAF EGYE
Valido dal 29 a 12 ore il 29 a 19 ore UTC


291016Z 2912/2919 26007KT 9999 FEW008
TEMPO 2912/2914 BKN018
PROB30
TEMPO 2912/2914 7000 -RA SCT008



MetMap, La meteo Aeronautica in un colpo d'occhio ! - Copyright ORBIFLY Dicembre 2007 - Disclaimer

ORBIFLY MET'MAP TEAM :

Programmazione e sviluppo : Alexandra Zaïnal
Concezione : Baudouin d'Aumeries
Supporto tecnico e logistico : Manuel Goepfert
Aiuto : Marc-Olivier Méhu
Aiuto per la traduzione : Arnaldo La Scala




FONTI E CREDITI :

   NOAA